sensor_id;sensor_type;location;lat;lon;timestamp;temperature;humidity
40828;DHT22;26549;50.918;5.338;2023-06-10T00:01:45;23.00;92.70
40828;DHT22;26549;50.918;5.338;2023-06-10T00:04:15;23.00;92.80
40828;DHT22;26549;50.918;5.338;2023-06-10T00:06:45;22.90;92.80
40828;DHT22;26549;50.918;5.338;2023-06-10T00:09:15;22.90;92.80
40828;DHT22;26549;50.918;5.338;2023-06-10T00:11:41;22.80;93.10
40828;DHT22;26549;50.918;5.338;2023-06-10T00:14:07;22.90;93.00
40828;DHT22;26549;50.918;5.338;2023-06-10T00:16:34;22.90;92.90
40828;DHT22;26549;50.918;5.338;2023-06-10T00:19:00;22.90;93.10
40828;DHT22;26549;50.918;5.338;2023-06-10T00:21:30;22.90;93.10
40828;DHT22;26549;50.918;5.338;2023-06-10T00:24:04;22.90;93.30
40828;DHT22;26549;50.918;5.338;2023-06-10T00:26:31;22.90;93.40
40828;DHT22;26549;50.918;5.338;2023-06-10T00:28:57;22.80;93.40
40828;DHT22;26549;50.918;5.338;2023-06-10T00:31:23;22.80;93.50
40828;DHT22;26549;50.918;5.338;2023-06-10T00:33:49;22.70;93.50
40828;DHT22;26549;50.918;5.338;2023-06-10T00:36:14;22.70;93.60
40828;DHT22;26549;50.918;5.338;2023-06-10T00:38:40;22.60;93.80
40828;DHT22;26549;50.918;5.338;2023-06-10T00:41:06;22.50;93.80
40828;DHT22;26549;50.918;5.338;2023-06-10T00:43:33;22.50;94.00
40828;DHT22;26549;50.918;5.338;2023-06-10T00:45:59;22.50;94.10
40828;DHT22;26549;50.918;5.338;2023-06-10T00:48:25;22.50;94.00
40828;DHT22;26549;50.918;5.338;2023-06-10T00:50:51;22.60;94.10
40828;DHT22;26549;50.918;5.338;2023-06-10T00:53:17;22.60;94.10
40828;DHT22;26549;50.918;5.338;2023-06-10T00:55:44;22.50;94.20
40828;DHT22;26549;50.918;5.338;2023-06-10T00:58:10;22.60;94.10
40828;DHT22;26549;50.918;5.338;2023-06-10T01:00:36;22.50;94.30
40828;DHT22;26549;50.918;5.338;2023-06-10T01:03:02;22.40;94.40
40828;DHT22;26549;50.918;5.338;2023-06-10T01:05:36;22.40;94.40
40828;DHT22;26549;50.918;5.338;2023-06-10T01:11:01;22.40;94.50
40828;DHT22;26549;50.918;5.338;2023-06-10T01:13:29;22.30;94.70
40828;DHT22;26549;50.918;5.338;2023-06-10T01:15:58;22.30;94.80
40828;DHT22;26549;50.918;5.338;2023-06-10T01:18:29;22.40;94.80
40828;DHT22;26549;50.918;5.338;2023-06-10T01:20:56;22.30;94.90
40828;DHT22;26549;50.918;5.338;2023-06-10T01:23:23;22.30;95.00
40828;DHT22;26549;50.918;5.338;2023-06-10T01:26:03;22.30;95.00
40828;DHT22;26549;50.918;5.338;2023-06-10T01:28:57;22.20;95.10
40828;DHT22;26549;50.918;5.338;2023-06-10T01:31:31;22.20;95.20
40828;DHT22;26549;50.918;5.338;2023-06-10T01:34:00;22.20;95.30
40828;DHT22;26549;50.918;5.338;2023-06-10T01:36:28;22.20;95.40
40828;DHT22;26549;50.918;5.338;2023-06-10T01:38:55;22.10;95.40
40828;DHT22;26549;50.918;5.338;2023-06-10T01:41:22;22.00;95.50
40828;DHT22;26549;50.918;5.338;2023-06-10T01:43:49;22.20;95.50
40828;DHT22;26549;50.918;5.338;2023-06-10T01:46:15;22.10;95.40
40828;DHT22;26549;50.918;5.338;2023-06-10T01:48:45;22.10;95.80
40828;DHT22;26549;50.918;5.338;2023-06-10T01:51:10;22.00;95.80
40828;DHT22;26549;50.918;5.338;2023-06-10T01:53:37;22.10;95.90
40828;DHT22;26549;50.918;5.338;2023-06-10T01:56:03;22.00;96.00
40828;DHT22;26549;50.918;5.338;2023-06-10T01:58:29;21.80;96.20
40828;DHT22;26549;50.918;5.338;2023-06-10T02:00:54;21.80;96.40
40828;DHT22;26549;50.918;5.338;2023-06-10T02:03:20;21.80;96.50
40828;DHT22;26549;50.918;5.338;2023-06-10T02:05:46;21.70;96.60
40828;DHT22;26549;50.918;5.338;2023-06-10T02:08:12;21.80;96.60
40828;DHT22;26549;50.918;5.338;2023-06-10T02:10:37;21.70;96.90
40828;DHT22;26549;50.918;5.338;2023-06-10T02:13:03;21.70;96.80
40828;DHT22;26549;50.918;5.338;2023-06-10T02:15:29;21.70;96.80
40828;DHT22;26549;50.918;5.338;2023-06-10T02:17:55;21.70;96.80
40828;DHT22;26549;50.918;5.338;2023-06-10T02:20:22;21.60;97.10
40828;DHT22;26549;50.918;5.338;2023-06-10T02:22:49;21.60;97.30
40828;DHT22;26549;50.918;5.338;2023-06-10T02:25:14;21.60;97.20
40828;DHT22;26549;50.918;5.338;2023-06-10T02:27:40;21.60;97.30
40828;DHT22;26549;50.918;5.338;2023-06-10T02:30:06;21.60;97.30
40828;DHT22;26549;50.918;5.338;2023-06-10T02:32:35;21.70;97.20
40828;DHT22;26549;50.918;5.338;2023-06-10T02:35:00;21.50;97.50
40828;DHT22;26549;50.918;5.338;2023-06-10T02:37:27;21.50;97.70
40828;DHT22;26549;50.918;5.338;2023-06-10T02:39:52;21.60;97.80
40828;DHT22;26549;50.918;5.338;2023-06-10T02:42:18;21.60;97.70
40828;DHT22;26549;50.918;5.338;2023-06-10T02:44:44;21.50;97.80
40828;DHT22;26549;50.918;5.338;2023-06-10T02:47:10;21.40;97.90
40828;DHT22;26549;50.918;5.338;2023-06-10T02:49:35;21.50;97.90
40828;DHT22;26549;50.918;5.338;2023-06-10T02:52:02;21.40;98.10
40828;DHT22;26549;50.918;5.338;2023-06-10T02:54:27;21.30;98.30
40828;DHT22;26549;50.918;5.338;2023-06-10T02:56:53;21.40;98.20
40828;DHT22;26549;50.918;5.338;2023-06-10T02:59:21;21.30;98.30
40828;DHT22;26549;50.918;5.338;2023-06-10T03:01:47;21.30;98.60
40828;DHT22;26549;50.918;5.338;2023-06-10T03:04:13;21.30;98.40
40828;DHT22;26549;50.918;5.338;2023-06-10T03:06:41;21.20;98.50
40828;DHT22;26549;50.918;5.338;2023-06-10T03:09:07;21.20;98.60
40828;DHT22;26549;50.918;5.338;2023-06-10T03:11:33;21.20;99.00
40828;DHT22;26549;50.918;5.338;2023-06-10T03:13:59;21.10;98.90
40828;DHT22;26549;50.918;5.338;2023-06-10T03:16:25;21.10;99.00
40828;DHT22;26549;50.918;5.338;2023-06-10T03:18:50;21.10;99.10
40828;DHT22;26549;50.918;5.338;2023-06-10T03:21:16;21.00;99.20
40828;DHT22;26549;50.918;5.338;2023-06-10T03:23:42;20.90;99.40
40828;DHT22;26549;50.918;5.338;2023-06-10T03:26:08;21.00;99.30
40828;DHT22;26549;50.918;5.338;2023-06-10T03:28:35;21.00;99.40
40828;DHT22;26549;50.918;5.338;2023-06-10T03:31:03;21.00;99.40
40828;DHT22;26549;50.918;5.338;2023-06-10T03:33:29;20.90;99.50
40828;DHT22;26549;50.918;5.338;2023-06-10T03:35:55;20.80;99.60
40828;DHT22;26549;50.918;5.338;2023-06-10T03:38:21;20.90;99.70
40828;DHT22;26549;50.918;5.338;2023-06-10T03:40:47;20.90;99.70
40828;DHT22;26549;50.918;5.338;2023-06-10T03:43:13;20.80;99.70
40828;DHT22;26549;50.918;5.338;2023-06-10T03:45:38;20.90;99.70
40828;DHT22;26549;50.918;5.338;2023-06-10T03:48:04;20.80;99.70
40828;DHT22;26549;50.918;5.338;2023-06-10T03:50:31;20.90;99.90
40828;DHT22;26549;50.918;5.338;2023-06-10T03:52:58;20.90;99.90
40828;DHT22;26549;50.918;5.338;2023-06-10T03:55:23;20.90;99.90
40828;DHT22;26549;50.918;5.338;2023-06-10T03:57:50;20.80;99.90
40828;DHT22;26549;50.918;5.338;2023-06-10T04:00:16;20.80;99.90
40828;DHT22;26549;50.918;5.338;2023-06-10T04:02:43;20.90;99.90
40828;DHT22;26549;50.918;5.338;2023-06-10T04:05:13;20.90;99.90
40828;DHT22;26549;50.918;5.338;2023-06-10T04:07:39;20.90;99.90
40828;DHT22;26549;50.918;5.338;2023-06-10T04:10:13;20.90;99.90
40828;DHT22;26549;50.918;5.338;2023-06-10T04:12:38;21.00;99.90
40828;DHT22;26549;50.918;5.338;2023-06-10T04:15:05;20.90;99.90
40828;DHT22;26549;50.918;5.338;2023-06-10T04:17:31;21.00;99.90
40828;DHT22;26549;50.918;5.338;2023-06-10T04:19:57;20.90;99.90
40828;DHT22;26549;50.918;5.338;2023-06-10T04:22:26;20.90;99.90
40828;DHT22;26549;50.918;5.338;2023-06-10T04:24:52;20.80;99.90
40828;DHT22;26549;50.918;5.338;2023-06-10T04:27:18;20.90;99.90
40828;DHT22;26549;50.918;5.338;2023-06-10T04:29:44;20.90;99.90
40828;DHT22;26549;50.918;5.338;2023-06-10T04:32:10;20.80;99.90
40828;DHT22;26549;50.918;5.338;2023-06-10T04:34:36;20.80;99.90
40828;DHT22;26549;50.918;5.338;2023-06-10T04:37:04;20.90;99.90
40828;DHT22;26549;50.918;5.338;2023-06-10T04:39:30;20.90;99.90
40828;DHT22;26549;50.918;5.338;2023-06-10T04:41:57;20.90;99.90
40828;DHT22;26549;50.918;5.338;2023-06-10T04:44:22;21.00;99.90
40828;DHT22;26549;50.918;5.338;2023-06-10T04:46:48;21.00;99.90
40828;DHT22;26549;50.918;5.338;2023-06-10T04:49:14;21.00;99.90
40828;DHT22;26549;50.918;5.338;2023-06-10T04:51:40;21.00;99.90
40828;DHT22;26549;50.918;5.338;2023-06-10T04:54:07;20.80;99.90
40828;DHT22;26549;50.918;5.338;2023-06-10T04:56:33;21.00;99.90
40828;DHT22;26549;50.918;5.338;2023-06-10T04:58:59;21.10;99.90
40828;DHT22;26549;50.918;5.338;2023-06-10T05:01:25;21.20;99.90
40828;DHT22;26549;50.918;5.338;2023-06-10T05:03:51;21.20;99.90
40828;DHT22;26549;50.918;5.338;2023-06-10T05:06:17;21.10;99.90
40828;DHT22;26549;50.918;5.338;2023-06-10T05:08:43;21.10;99.90
40828;DHT22;26549;50.918;5.338;2023-06-10T05:11:09;21.20;99.90
40828;DHT22;26549;50.918;5.338;2023-06-10T05:13:35;21.30;99.90
40828;DHT22;26549;50.918;5.338;2023-06-10T05:16:01;21.40;99.90
40828;DHT22;26549;50.918;5.338;2023-06-10T05:18:27;21.40;99.90
40828;DHT22;26549;50.918;5.338;2023-06-10T05:20:54;21.40;99.90
40828;DHT22;26549;50.918;5.338;2023-06-10T05:23:20;21.50;99.90
40828;DHT22;26549;50.918;5.338;2023-06-10T05:25:46;21.70;99.90
40828;DHT22;26549;50.918;5.338;2023-06-10T05:28:11;21.80;99.90
40828;DHT22;26549;50.918;5.338;2023-06-10T05:30:38;21.70;99.90
40828;DHT22;26549;50.918;5.338;2023-06-10T05:33:04;21.80;99.90
40828;DHT22;26549;50.918;5.338;2023-06-10T05:35:30;21.80;99.90
40828;DHT22;26549;50.918;5.338;2023-06-10T05:37:56;21.70;99.90
40828;DHT22;26549;50.918;5.338;2023-06-10T05:40:22;21.80;99.90
40828;DHT22;26549;50.918;5.338;2023-06-10T05:42:48;21.90;99.90
40828;DHT22;26549;50.918;5.338;2023-06-10T05:45:13;21.90;99.90
40828;DHT22;26549;50.918;5.338;2023-06-10T05:47:39;22.00;99.90
40828;DHT22;26549;50.918;5.338;2023-06-10T05:50:06;22.00;99.90
40828;DHT22;26549;50.918;5.338;2023-06-10T05:52:36;22.10;99.90
40828;DHT22;26549;50.918;5.338;2023-06-10T05:55:03;22.10;99.90
40828;DHT22;26549;50.918;5.338;2023-06-10T05:57:32;22.30;99.90
40828;DHT22;26549;50.918;5.338;2023-06-10T05:59:58;22.40;99.90
40828;DHT22;26549;50.918;5.338;2023-06-10T06:02:24;22.40;99.50
40828;DHT22;26549;50.918;5.338;2023-06-10T06:04:49;22.40;99.40
40828;DHT22;26549;50.918;5.338;2023-06-10T06:07:15;22.30;99.80
40828;DHT22;26549;50.918;5.338;2023-06-10T06:09:41;22.60;98.70
40828;DHT22;26549;50.918;5.338;2023-06-10T06:12:07;22.60;99.10
40828;DHT22;26549;50.918;5.338;2023-06-10T06:14:37;22.60;99.00
40828;DHT22;26549;50.918;5.338;2023-06-10T06:17:05;22.70;99.20
40828;DHT22;26549;50.918;5.338;2023-06-10T06:19:32;22.80;98.70
40828;DHT22;26549;50.918;5.338;2023-06-10T06:21:58;23.00;98.00
40828;DHT22;26549;50.918;5.338;2023-06-10T06:24:24;23.20;97.90
40828;DHT22;26549;50.918;5.338;2023-06-10T06:26:50;23.40;97.30
40828;DHT22;26549;50.918;5.338;2023-06-10T06:29:16;23.50;96.60
40828;DHT22;26549;50.918;5.338;2023-06-10T06:31:41;23.70;96.80
40828;DHT22;26549;50.918;5.338;2023-06-10T06:34:07;23.90;96.00
40828;DHT22;26549;50.918;5.338;2023-06-10T06:36:33;24.00;96.20
40828;DHT22;26549;50.918;5.338;2023-06-10T06:38:59;24.00;95.50
40828;DHT22;26549;50.918;5.338;2023-06-10T06:41:28;24.20;95.40
40828;DHT22;26549;50.918;5.338;2023-06-10T06:43:54;24.50;94.70
40828;DHT22;26549;50.918;5.338;2023-06-10T06:46:21;24.50;94.40
40828;DHT22;26549;50.918;5.338;2023-06-10T06:48:48;24.40;94.70
40828;DHT22;26549;50.918;5.338;2023-06-10T06:51:13;24.40;94.90
40828;DHT22;26549;50.918;5.338;2023-06-10T06:53:39;24.60;94.20
40828;DHT22;26549;50.918;5.338;2023-06-10T06:56:13;24.60;94.50
40828;DHT22;26549;50.918;5.338;2023-06-10T06:58:39;24.80;94.40
40828;DHT22;26549;50.918;5.338;2023-06-10T07:01:05;24.90;93.60
40828;DHT22;26549;50.918;5.338;2023-06-10T07:03:30;25.10;94.30
40828;DHT22;26549;50.918;5.338;2023-06-10T07:05:56;25.10;94.00
40828;DHT22;26549;50.918;5.338;2023-06-10T07:08:22;25.20;94.10
40828;DHT22;26549;50.918;5.338;2023-06-10T07:10:47;25.30;94.80
40828;DHT22;26549;50.918;5.338;2023-06-10T07:13:14;25.30;94.70
40828;DHT22;26549;50.918;5.338;2023-06-10T07:15:40;25.40;94.00
40828;DHT22;26549;50.918;5.338;2023-06-10T07:18:06;25.40;93.10
40828;DHT22;26549;50.918;5.338;2023-06-10T07:20:31;25.60;93.30
40828;DHT22;26549;50.918;5.338;2023-06-10T07:22:57;25.60;92.90
40828;DHT22;26549;50.918;5.338;2023-06-10T07:25:23;25.60;93.70
40828;DHT22;26549;50.918;5.338;2023-06-10T07:27:49;25.70;92.90
40828;DHT22;26549;50.918;5.338;2023-06-10T07:30:15;25.60;92.80
40828;DHT22;26549;50.918;5.338;2023-06-10T07:32:41;25.60;92.80
40828;DHT22;26549;50.918;5.338;2023-06-10T07:35:08;25.70;93.70
40828;DHT22;26549;50.918;5.338;2023-06-10T07:37:36;25.80;93.30
40828;DHT22;26549;50.918;5.338;2023-06-10T07:40:05;25.90;93.60
40828;DHT22;26549;50.918;5.338;2023-06-10T07:42:35;26.00;93.30
40828;DHT22;26549;50.918;5.338;2023-06-10T07:45:02;26.10;92.90
40828;DHT22;26549;50.918;5.338;2023-06-10T07:47:29;26.20;93.30
40828;DHT22;26549;50.918;5.338;2023-06-10T07:49:55;26.30;92.60
40828;DHT22;26549;50.918;5.338;2023-06-10T07:52:20;26.40;92.50
40828;DHT22;26549;50.918;5.338;2023-06-10T07:54:46;26.50;92.30
40828;DHT22;26549;50.918;5.338;2023-06-10T07:57:12;26.40;93.40
40828;DHT22;26549;50.918;5.338;2023-06-10T07:59:38;26.40;93.20
40828;DHT22;26549;50.918;5.338;2023-06-10T08:02:04;26.50;93.10
40828;DHT22;26549;50.918;5.338;2023-06-10T08:04:30;26.50;92.30
40828;DHT22;26549;50.918;5.338;2023-06-10T08:06:56;26.50;92.00
40828;DHT22;26549;50.918;5.338;2023-06-10T08:09:22;26.50;92.70
40828;DHT22;26549;50.918;5.338;2023-06-10T08:11:48;26.70;92.20
40828;DHT22;26549;50.918;5.338;2023-06-10T08:14:15;26.70;92.10
40828;DHT22;26549;50.918;5.338;2023-06-10T08:16:42;26.70;92.00
40828;DHT22;26549;50.918;5.338;2023-06-10T08:19:08;26.80;92.10
40828;DHT22;26549;50.918;5.338;2023-06-10T08:21:35;26.90;92.40
40828;DHT22;26549;50.918;5.338;2023-06-10T08:24:03;27.00;92.10
40828;DHT22;26549;50.918;5.338;2023-06-10T08:26:28;27.20;92.50
40828;DHT22;26549;50.918;5.338;2023-06-10T08:28:54;27.20;91.80
40828;DHT22;26549;50.918;5.338;2023-06-10T08:31:21;27.20;91.30
40828;DHT22;26549;50.918;5.338;2023-06-10T08:33:46;27.20;91.60
40828;DHT22;26549;50.918;5.338;2023-06-10T08:36:12;27.20;91.60
40828;DHT22;26549;50.918;5.338;2023-06-10T08:38:38;27.20;91.70
40828;DHT22;26549;50.918;5.338;2023-06-10T08:41:05;27.30;91.00
40828;DHT22;26549;50.918;5.338;2023-06-10T08:43:38;27.40;91.50
40828;DHT22;26549;50.918;5.338;2023-06-10T08:46:08;27.30;92.00
40828;DHT22;26549;50.918;5.338;2023-06-10T08:48:35;27.10;91.10
40828;DHT22;26549;50.918;5.338;2023-06-10T08:51:04;27.00;91.70
40828;DHT22;26549;50.918;5.338;2023-06-10T08:53:32;27.00;91.80
40828;DHT22;26549;50.918;5.338;2023-06-10T08:56:00;27.20;91.50
40828;DHT22;26549;50.918;5.338;2023-06-10T08:58:29;27.50;92.30
40828;DHT22;26549;50.918;5.338;2023-06-10T09:00:56;27.70;90.60
40828;DHT22;26549;50.918;5.338;2023-06-10T09:03:23;27.40;90.50
40828;DHT22;26549;50.918;5.338;2023-06-10T09:05:50;27.50;92.20
40828;DHT22;26549;50.918;5.338;2023-06-10T09:08:16;27.70;90.90
40828;DHT22;26549;50.918;5.338;2023-06-10T09:10:45;27.70;91.20
40828;DHT22;26549;50.918;5.338;2023-06-10T09:13:11;27.70;91.20
40828;DHT22;26549;50.918;5.338;2023-06-10T09:15:37;27.70;90.40
40828;DHT22;26549;50.918;5.338;2023-06-10T09:18:02;27.90;90.30
40828;DHT22;26549;50.918;5.338;2023-06-10T09:20:32;28.10;90.50
40828;DHT22;26549;50.918;5.338;2023-06-10T09:23:00;27.90;90.60
40828;DHT22;26549;50.918;5.338;2023-06-10T09:25:36;28.10;90.50
40828;DHT22;26549;50.918;5.338;2023-06-10T09:28:03;28.20;90.00
40828;DHT22;26549;50.918;5.338;2023-06-10T09:30:31;28.30;89.30
40828;DHT22;26549;50.918;5.338;2023-06-10T09:32:59;28.40;90.10
40828;DHT22;26549;50.918;5.338;2023-06-10T09:35:27;28.60;90.00
40828;DHT22;26549;50.918;5.338;2023-06-10T09:37:54;28.60;89.70
40828;DHT22;26549;50.918;5.338;2023-06-10T09:40:20;28.70;88.60
40828;DHT22;26549;50.918;5.338;2023-06-10T09:42:45;28.80;89.30
40828;DHT22;26549;50.918;5.338;2023-06-10T09:45:16;28.90;84.90
40828;DHT22;26549;50.918;5.338;2023-06-10T09:47:46;28.90;84.70
40828;DHT22;26549;50.918;5.338;2023-06-10T09:50:12;29.10;86.70
40828;DHT22;26549;50.918;5.338;2023-06-10T09:52:38;29.20;84.40
40828;DHT22;26549;50.918;5.338;2023-06-10T09:55:07;29.30;83.90
40828;DHT22;26549;50.918;5.338;2023-06-10T09:57:33;29.30;86.80
40828;DHT22;26549;50.918;5.338;2023-06-10T10:00:12;29.40;82.60
40828;DHT22;26549;50.918;5.338;2023-06-10T10:02:52;29.30;83.10
40828;DHT22;26549;50.918;5.338;2023-06-10T10:05:20;29.30;84.60
40828;DHT22;26549;50.918;5.338;2023-06-10T10:07:47;29.20;82.90
40828;DHT22;26549;50.918;5.338;2023-06-10T10:10:17;29.00;82.60
40828;DHT22;26549;50.918;5.338;2023-06-10T10:12:46;29.00;83.30
40828;DHT22;26549;50.918;5.338;2023-06-10T10:15:16;29.30;85.80
40828;DHT22;26549;50.918;5.338;2023-06-10T10:17:51;29.40;84.50
40828;DHT22;26549;50.918;5.338;2023-06-10T10:20:21;29.40;84.00
40828;DHT22;26549;50.918;5.338;2023-06-10T10:22:50;29.50;83.90
40828;DHT22;26549;50.918;5.338;2023-06-10T10:25:24;29.70;81.50
40828;DHT22;26549;50.918;5.338;2023-06-10T10:30:40;29.90;81.10
40828;DHT22;26549;50.918;5.338;2023-06-10T10:33:16;30.00;79.30
40828;DHT22;26549;50.918;5.338;2023-06-10T10:35:46;29.90;75.70
40828;DHT22;26549;50.918;5.338;2023-06-10T10:38:15;29.80;78.50
40828;DHT22;26549;50.918;5.338;2023-06-10T10:40:41;29.70;79.30
40828;DHT22;26549;50.918;5.338;2023-06-10T10:43:09;29.80;79.70
40828;DHT22;26549;50.918;5.338;2023-06-10T10:45:35;29.70;77.10
40828;DHT22;26549;50.918;5.338;2023-06-10T10:48:07;29.80;77.50
40828;DHT22;26549;50.918;5.338;2023-06-10T10:50:35;29.80;77.80
40828;DHT22;26549;50.918;5.338;2023-06-10T10:53:02;29.80;77.60
40828;DHT22;26549;50.918;5.338;2023-06-10T10:55:29;29.80;79.00
40828;DHT22;26549;50.918;5.338;2023-06-10T10:58:03;29.80;78.00
40828;DHT22;26549;50.918;5.338;2023-06-10T11:00:37;30.10;78.90
40828;DHT22;26549;50.918;5.338;2023-06-10T11:05:37;30.30;79.20
40828;DHT22;26549;50.918;5.338;2023-06-10T11:08:04;30.30;72.90
40828;DHT22;26549;50.918;5.338;2023-06-10T11:10:35;30.20;72.90
40828;DHT22;26549;50.918;5.338;2023-06-10T11:13:19;30.10;72.20
40828;DHT22;26549;50.918;5.338;2023-06-10T11:15:46;30.10;72.50
40828;DHT22;26549;50.918;5.338;2023-06-10T11:18:28;30.10;77.20
40828;DHT22;26549;50.918;5.338;2023-06-10T11:21:00;30.20;75.80
40828;DHT22;26549;50.918;5.338;2023-06-10T11:26:10;30.30;77.60
40828;DHT22;26549;50.918;5.338;2023-06-10T11:28:37;30.30;73.30
40828;DHT22;26549;50.918;5.338;2023-06-10T11:31:03;30.30;74.30
40828;DHT22;26549;50.918;5.338;2023-06-10T11:33:29;30.40;75.90
40828;DHT22;26549;50.918;5.338;2023-06-10T11:35:56;30.50;74.40
40828;DHT22;26549;50.918;5.338;2023-06-10T11:38:22;30.30;73.50
40828;DHT22;26549;50.918;5.338;2023-06-10T11:40:49;30.40;73.70
40828;DHT22;26549;50.918;5.338;2023-06-10T11:43:18;30.30;73.40
40828;DHT22;26549;50.918;5.338;2023-06-10T11:45:46;30.30;72.60
40828;DHT22;26549;50.918;5.338;2023-06-10T11:48:12;30.50;75.50
40828;DHT22;26549;50.918;5.338;2023-06-10T11:50:39;30.60;71.90
40828;DHT22;26549;50.918;5.338;2023-06-10T11:53:08;30.60;69.90
40828;DHT22;26549;50.918;5.338;2023-06-10T11:55:49;30.50;70.40
40828;DHT22;26549;50.918;5.338;2023-06-10T11:58:20;30.50;71.30
40828;DHT22;26549;50.918;5.338;2023-06-10T12:00:52;30.50;69.20
40828;DHT22;26549;50.918;5.338;2023-06-10T12:03:24;30.40;70.80
40828;DHT22;26549;50.918;5.338;2023-06-10T12:06:02;30.70;70.80
40828;DHT22;26549;50.918;5.338;2023-06-10T12:08:29;30.80;71.50
40828;DHT22;26549;50.918;5.338;2023-06-10T12:10:57;30.70;67.50
40828;DHT22;26549;50.918;5.338;2023-06-10T12:13:25;30.80;68.70
40828;DHT22;26549;50.918;5.338;2023-06-10T12:15:53;30.90;66.20
40828;DHT22;26549;50.918;5.338;2023-06-10T12:18:23;30.70;67.90
40828;DHT22;26549;50.918;5.338;2023-06-10T12:20:49;30.70;68.10
40828;DHT22;26549;50.918;5.338;2023-06-10T12:23:17;30.60;68.00
40828;DHT22;26549;50.918;5.338;2023-06-10T12:25:55;30.60;69.30
40828;DHT22;26549;50.918;5.338;2023-06-10T12:28:25;30.70;67.40
40828;DHT22;26549;50.918;5.338;2023-06-10T12:30:52;30.70;69.80
40828;DHT22;26549;50.918;5.338;2023-06-10T12:33:32;30.60;69.80
40828;DHT22;26549;50.918;5.338;2023-06-10T12:36:01;30.60;69.40
40828;DHT22;26549;50.918;5.338;2023-06-10T12:38:27;30.50;69.90
40828;DHT22;26549;50.918;5.338;2023-06-10T12:40:53;30.60;74.10
40828;DHT22;26549;50.918;5.338;2023-06-10T12:43:25;30.60;72.00
40828;DHT22;26549;50.918;5.338;2023-06-10T12:45:52;30.70;68.40
40828;DHT22;26549;50.918;5.338;2023-06-10T12:48:20;30.70;67.90
40828;DHT22;26549;50.918;5.338;2023-06-10T12:50:52;30.80;69.00
40828;DHT22;26549;50.918;5.338;2023-06-10T12:53:19;30.70;67.30
40828;DHT22;26549;50.918;5.338;2023-06-10T12:55:47;30.70;67.40
40828;DHT22;26549;50.918;5.338;2023-06-10T12:58:14;30.70;71.30
40828;DHT22;26549;50.918;5.338;2023-06-10T13:00:40;30.60;70.50
40828;DHT22;26549;50.918;5.338;2023-06-10T13:03:08;30.60;70.10
40828;DHT22;26549;50.918;5.338;2023-06-10T13:05:37;30.60;67.80
40828;DHT22;26549;50.918;5.338;2023-06-10T13:08:05;30.80;67.70
40828;DHT22;26549;50.918;5.338;2023-06-10T13:10:33;30.70;68.30
40828;DHT22;26549;50.918;5.338;2023-06-10T13:13:01;30.80;67.30
40828;DHT22;26549;50.918;5.338;2023-06-10T13:15:27;30.70;68.20
40828;DHT22;26549;50.918;5.338;2023-06-10T13:17:53;30.80;67.40
40828;DHT22;26549;50.918;5.338;2023-06-10T13:20:19;30.80;67.90
40828;DHT22;26549;50.918;5.338;2023-06-10T13:22:46;30.90;69.80
40828;DHT22;26549;50.918;5.338;2023-06-10T13:25:13;30.90;69.50
40828;DHT22;26549;50.918;5.338;2023-06-10T13:27:39;31.00;66.50
40828;DHT22;26549;50.918;5.338;2023-06-10T13:30:06;31.00;68.40
40828;DHT22;26549;50.918;5.338;2023-06-10T13:32:32;30.90;66.60
40828;DHT22;26549;50.918;5.338;2023-06-10T13:34:58;30.90;65.60
40828;DHT22;26549;50.918;5.338;2023-06-10T13:37:24;30.80;66.00
40828;DHT22;26549;50.918;5.338;2023-06-10T13:39:50;30.80;67.40
40828;DHT22;26549;50.918;5.338;2023-06-10T13:42:17;30.90;66.60
40828;DHT22;26549;50.918;5.338;2023-06-10T13:44:43;30.90;67.50
40828;DHT22;26549;50.918;5.338;2023-06-10T13:47:08;30.90;66.80
40828;DHT22;26549;50.918;5.338;2023-06-10T13:49:34;30.90;68.70
40828;DHT22;26549;50.918;5.338;2023-06-10T13:52:01;30.90;69.00
40828;DHT22;26549;50.918;5.338;2023-06-10T13:54:27;31.00;68.30
40828;DHT22;26549;50.918;5.338;2023-06-10T13:56:53;30.70;67.70
40828;DHT22;26549;50.918;5.338;2023-06-10T13:59:19;30.80;68.50
40828;DHT22;26549;50.918;5.338;2023-06-10T14:01:45;30.90;66.60
40828;DHT22;26549;50.918;5.338;2023-06-10T14:04:11;30.90;65.30
40828;DHT22;26549;50.918;5.338;2023-06-10T14:06:37;30.80;65.50
40828;DHT22;26549;50.918;5.338;2023-06-10T14:09:03;30.90;65.50
40828;DHT22;26549;50.918;5.338;2023-06-10T14:11:29;30.90;65.50
40828;DHT22;26549;50.918;5.338;2023-06-10T14:13:55;30.90;66.10
40828;DHT22;26549;50.918;5.338;2023-06-10T14:16:25;31.00;66.20
40828;DHT22;26549;50.918;5.338;2023-06-10T14:18:50;31.00;66.60
40828;DHT22;26549;50.918;5.338;2023-06-10T14:21:17;31.10;64.70
40828;DHT22;26549;50.918;5.338;2023-06-10T14:23:43;31.10;65.50
40828;DHT22;26549;50.918;5.338;2023-06-10T14:26:09;31.10;64.50
40828;DHT22;26549;50.918;5.338;2023-06-10T14:28:36;31.10;65.20
40828;DHT22;26549;50.918;5.338;2023-06-10T14:31:02;31.30;64.70
40828;DHT22;26549;50.918;5.338;2023-06-10T14:33:28;31.30;65.70
40828;DHT22;26549;50.918;5.338;2023-06-10T14:35:54;31.20;65.20
40828;DHT22;26549;50.918;5.338;2023-06-10T14:38:20;31.20;67.20
40828;DHT22;26549;50.918;5.338;2023-06-10T14:40:46;31.30;65.70
40828;DHT22;26549;50.918;5.338;2023-06-10T14:43:11;31.30;66.60
40828;DHT22;26549;50.918;5.338;2023-06-10T14:45:38;31.30;64.90
40828;DHT22;26549;50.918;5.338;2023-06-10T14:48:06;31.30;65.80
40828;DHT22;26549;50.918;5.338;2023-06-10T14:50:35;31.40;66.80
40828;DHT22;26549;50.918;5.338;2023-06-10T14:53:01;31.50;66.90
40828;DHT22;26549;50.918;5.338;2023-06-10T14:55:27;31.50;65.30
40828;DHT22;26549;50.918;5.338;2023-06-10T14:57:54;31.40;68.30
40828;DHT22;26549;50.918;5.338;2023-06-10T15:00:21;31.50;65.00
40828;DHT22;26549;50.918;5.338;2023-06-10T15:02:48;31.40;65.80
40828;DHT22;26549;50.918;5.338;2023-06-10T15:05:15;31.40;64.40
40828;DHT22;26549;50.918;5.338;2023-06-10T15:07:41;31.30;67.90
40828;DHT22;26549;50.918;5.338;2023-06-10T15:10:08;31.30;65.10
40828;DHT22;26549;50.918;5.338;2023-06-10T15:12:34;31.50;65.50
40828;DHT22;26549;50.918;5.338;2023-06-10T15:15:00;31.30;65.40
40828;DHT22;26549;50.918;5.338;2023-06-10T15:17:26;31.40;66.30
40828;DHT22;26549;50.918;5.338;2023-06-10T15:19:52;31.50;67.20
40828;DHT22;26549;50.918;5.338;2023-06-10T15:22:18;31.60;65.80
40828;DHT22;26549;50.918;5.338;2023-06-10T15:24:44;31.60;67.40
40828;DHT22;26549;50.918;5.338;2023-06-10T15:27:09;31.50;69.90
40828;DHT22;26549;50.918;5.338;2023-06-10T15:29:36;31.50;70.10
40828;DHT22;26549;50.918;5.338;2023-06-10T15:32:01;31.70;67.80
40828;DHT22;26549;50.918;5.338;2023-06-10T15:34:27;31.70;70.40
40828;DHT22;26549;50.918;5.338;2023-06-10T15:36:54;31.60;69.10
40828;DHT22;26549;50.918;5.338;2023-06-10T15:39:21;31.40;68.70
40828;DHT22;26549;50.918;5.338;2023-06-10T15:41:46;31.50;70.50